createdAt,value
2022-11-28T00:00:04.114Z,0.00
2022-11-28T00:10:01.368Z,0.00
2022-11-28T00:20:00.166Z,0.00
2022-11-28T00:30:00.243Z,0.00
2022-11-28T00:40:00.808Z,0.00
2022-11-28T00:50:01.402Z,0.00
2022-11-28T01:00:00.150Z,0.00
2022-11-28T01:10:01.844Z,0.00
2022-11-28T01:20:00.162Z,0.00
2022-11-28T01:30:01.644Z,0.00
2022-11-28T01:40:01.746Z,0.00
2022-11-28T01:50:01.372Z,0.00
2022-11-28T02:00:00.972Z,0.00
2022-11-28T02:10:01.106Z,0.00
2022-11-28T02:20:00.133Z,0.00
2022-11-28T02:30:01.129Z,0.00
2022-11-28T02:40:00.973Z,0.00
2022-11-28T02:50:01.608Z,0.00
2022-11-28T03:00:01.559Z,0.00
2022-11-28T03:10:01.134Z,0.00
2022-11-28T03:20:01.313Z,0.00
2022-11-28T03:30:01.386Z,0.00
2022-11-28T03:40:00.808Z,0.00
2022-11-28T03:50:00.242Z,0.00
2022-11-28T04:00:01.063Z,0.00
2022-11-28T04:10:01.157Z,0.00
2022-11-28T04:20:01.039Z,0.00
2022-11-28T04:30:01.207Z,0.00
2022-11-28T04:40:00.143Z,0.00
2022-11-28T04:50:01.182Z,0.00
2022-11-28T05:00:01.055Z,0.00
2022-11-28T05:10:01.895Z,0.00
2022-11-28T05:20:01.266Z,0.00
2022-11-28T05:30:01.090Z,0.00
2022-11-28T05:40:02.329Z,0.00
2022-11-28T05:50:01.628Z,0.00
2022-11-28T06:00:02.973Z,0.00
2022-11-28T06:10:01.572Z,0.23
2022-11-28T06:20:01.295Z,1.81
2022-11-28T06:30:03.339Z,8.72
2022-11-28T06:40:01.028Z,13.33
2022-11-28T06:50:00.265Z,38.33
2022-11-28T07:00:00.136Z,73.33
2022-11-28T07:10:01.391Z,138.33
2022-11-28T07:20:01.274Z,225.00
2022-11-28T07:30:01.190Z,323.33
2022-11-28T07:40:01.243Z,393.33
2022-11-28T07:50:01.974Z,506.67
2022-11-28T08:00:02.408Z,600.00
2022-11-28T08:10:01.207Z,711.67
2022-11-28T08:20:01.023Z,890.00
2022-11-28T08:30:01.501Z,2072.92
2022-11-28T08:40:01.231Z,1235.00
2022-11-28T09:00:01.341Z,1616.67
2022-11-28T09:10:00.148Z,1450.00
2022-11-28T09:20:01.302Z,1338.33
2022-11-28T09:30:01.182Z,1325.00
2022-11-28T09:40:14.335Z,1506.67
2022-11-28T09:50:01.032Z,1566.67
2022-11-28T10:00:02.222Z,1663.33
2022-11-28T10:10:01.267Z,1803.33
2022-11-28T10:20:01.715Z,1803.33
2022-11-28T10:30:01.348Z,2678.75
2022-11-28T10:40:01.791Z,2400.83
2022-11-28T11:40:01.324Z,4053.33
2022-11-28T11:50:00.978Z,1920.00
2022-11-28T12:00:01.372Z,3416.67
2022-11-28T12:20:01.941Z,2779.58
2022-11-28T12:40:03.018Z,3852.08
2022-11-28T12:50:02.352Z,1901.67
2022-11-28T13:00:06.951Z,1616.67
2022-11-28T13:10:01.216Z,1223.33
2022-11-28T13:20:01.401Z,873.33
2022-11-28T13:30:01.027Z,703.33
2022-11-28T13:40:01.496Z,671.67
2022-11-28T13:50:02.335Z,1234.17
2022-11-28T14:00:01.078Z,965.00
2022-11-28T14:10:01.316Z,323.33
2022-11-28T14:20:00.187Z,193.33
2022-11-28T14:30:00.991Z,145.00
2022-11-28T14:40:01.058Z,101.67
2022-11-28T14:50:00.164Z,63.33
2022-11-28T15:00:00.218Z,30.00
2022-11-28T15:10:05.820Z,10.00
2022-11-28T15:20:01.293Z,7.24
2022-11-28T15:30:01.125Z,1.36
2022-11-28T15:40:01.685Z,0.23
2022-11-28T15:50:01.367Z,0.00
2022-11-28T16:00:01.658Z,0.00
2022-11-28T16:10:01.313Z,0.00
2022-11-28T16:20:01.126Z,0.00
2022-11-28T16:30:01.275Z,0.00
2022-11-28T16:40:01.161Z,0.00
2022-11-28T16:50:01.399Z,0.00
2022-11-28T17:00:01.001Z,0.00
2022-11-28T17:10:01.107Z,0.00
2022-11-28T17:20:01.084Z,0.00
2022-11-28T17:30:00.133Z,0.00
2022-11-28T17:40:01.344Z,0.00
2022-11-28T17:50:01.253Z,0.00
2022-11-28T18:00:01.275Z,0.00
2022-11-28T18:10:01.063Z,0.00
2022-11-28T18:20:01.076Z,0.00
2022-11-28T18:30:01.072Z,0.00
2022-11-28T18:40:03.097Z,0.00
2022-11-28T18:50:01.127Z,0.00
2022-11-28T19:00:00.478Z,0.00
2022-11-28T19:10:00.139Z,0.00
2022-11-28T19:20:01.490Z,0.00
2022-11-28T19:30:00.991Z,0.00
2022-11-28T19:40:02.674Z,0.00
2022-11-28T19:50:01.261Z,0.00
2022-11-28T20:00:01.371Z,0.00
2022-11-28T20:10:00.982Z,0.00
2022-11-28T20:20:01.048Z,0.00
2022-11-28T20:30:01.537Z,0.00
2022-11-28T20:40:01.868Z,0.00
2022-11-28T20:50:03.041Z,0.00
2022-11-28T21:00:01.318Z,0.00
2022-11-28T21:10:01.278Z,0.00
2022-11-28T21:20:01.504Z,0.00
2022-11-28T21:30:00.144Z,0.00
2022-11-28T21:40:01.536Z,0.00
2022-11-28T21:50:01.071Z,0.00
2022-11-28T22:00:01.239Z,0.00
2022-11-28T22:10:01.268Z,0.00
2022-11-28T22:20:01.259Z,0.00
2022-11-28T22:30:00.991Z,0.00
2022-11-28T22:40:01.204Z,0.00
2022-11-28T22:50:03.615Z,0.00
2022-11-28T23:00:01.538Z,0.00
2022-11-28T23:10:00.147Z,0.00
2022-11-28T23:20:01.555Z,0.00
2022-11-28T23:30:00.130Z,0.00
2022-11-28T23:40:00.179Z,0.00
2022-11-28T23:50:01.301Z,0.00
